Friday, February 23, 2018, 8:14 PM GMT
Back to Local

CYQM, Moncton, N. B.

Location: , , Canada Lat: 46.117
Local Time: 8:14 PM GMT (20:14 GMT) Lon: -64.683
Time Zone: GMT Elev: 232 ft

Show me the last for .
Show Coded

Time T Td Feel RH Dir Speed Gust Alt SLP Vis Weather Sky Remarks
2018-02-23 20:00 28 5 23 36 250° 5 - 30.46 30.47 15 BKN250 None
2018-02-23 19:00 27 5 17 38 240° 9 - 30.51 30.53 15 BKN250 None
2018-02-23 18:00 27 5 19 38 Variable 7 - 30.56 30.58 15 SCT250 Pressure falling rapidly
2018-02-23 17:00 25 5 19 41 340° 5 - 30.61 30.63 15 SCT250 None
2018-02-23 16:00 23 3 15 41 310° 7 - 30.65 30.67 15 FEW230 None
2018-02-23 15:00 21 3 11 44 310° 9 - 30.67 30.69 15 FEW030 FEW230 None
2018-02-23 14:00 19 3 9 48 290° 8 - 30.69 30.71 15 FEW030 FEW230 None
2018-02-23 13:00 16 5 5 61 240° 8 - 30.69 30.71 15 FEW030 None
2018-02-23 12:00 14 3 5 61 260° 6 - 30.69 30.71 15 FEW025 None
2018-02-23 11:00 12 3 2 66 230° 7 - 30.69 30.71 15 FEW023 None
2018-02-23 10:00 14 3 5 61 300° 6 - 30.67 30.69 15 CLR None
2018-02-23 09:00 14 3 6 61 310° 5 - 30.69 30.71 15 FEW220 None
2018-02-23 08:00 16 3 9 56 300° 5 - 30.68 30.70 15 CLR None
2018-02-23 07:00 16 3 7 56 320° 6 - 30.67 30.69 15 CLR None
2018-02-23 06:00 16 3 7 56 330° 6 - 30.67 30.69 15 CLR Pressure rising rapidly
2018-02-23 05:00 18 5 9 57 320° 6 - 30.64 30.66 15 CLR None
2018-02-23 04:00 19 5 8 52 270° 10 - 30.62 30.64 15 FEW220 None
2018-02-23 03:00 21 7 12 53 270° 8 - 30.61 30.63 15 FEW220 None
2018-02-23 02:00 23 7 12 49 300° 10 - 30.59 30.61 15 FEW220 None
2018-02-23 01:00 21 14 15 73 360° 5 - 30.59 30.60 15 SCT220 None
2018-02-23 00:00 25 16 - 68 Variable 2 - 30.57 30.58 15 SCT150 BKN220 None
2018-02-22 23:00 25 16 20 68 90° 3 - 30.56 30.58 15 BKN150 BKN240 None
2018-02-22 22:00 25 14 19 62 40° 5 - 30.54 30.55 15 BKN180 OVC240 None
2018-02-22 21:00 27 14 21 58 20° 5 - 30.53 30.54 15 BKN170 OVC240 None

Support USWX by starting your Amazon purchase here.